Time;durP1;ratioP1;P1;durP2;ratioP2;P2;SDS_P1;SDS_P2;PMS_P1;PMS_P2;Temp;Humidity;BMP_temperature;BMP_pressure;BME280_temperature;BME280_humidity;BME280_pressure;Samples;Min_cycle;Max_cycle;Signal;HPM_P1;HPM_P2
2023/12/27 00:00:37;;;;;;;;;;;230.80;2252.80;;;;;;4964576;28;19997;-77
2023/12/27 00:03:04;;;;;;;;;;;230.70;2252.80;;;;;;4982363;28;19946;-79
2023/12/27 00:05:30;;;;;;;;;;;230.60;2252.80;;;;;;4957732;28;20315;-79
2023/12/27 00:07:55;;;;;;;;;;;230.50;2252.80;;;;;;4976261;28;19910;-79
2023/12/27 00:10:21;;;;;;;;;;;205.70;2252.80;;;;;;4958705;28;19910;-79
2023/12/27 00:12:47;;;;;;;;;;;230.40;2252.80;;;;;;4958979;28;19914;-79
2023/12/27 00:15:13;;;;;;;;;;;230.60;2252.80;;;;;;4958768;28;19910;-78
2023/12/27 00:17:38;;;;;;;;;;;230.80;2252.80;;;;;;4958817;28;19946;-79
2023/12/27 00:20:04;;;;;;;;;;;230.90;2252.80;;;;;;4958612;28;19972;-79
2023/12/27 00:22:30;;;;;;;;;;;230.80;2252.80;;;;;;4975969;28;20273;-79
2023/12/27 00:24:55;;;;;;;;;;;230.90;2252.80;;;;;;4958577;28;20002;-79
2023/12/27 00:27:21;;;;;;;;;;;230.90;2252.80;;;;;;4958544;28;19937;-79
2023/12/27 00:29:46;;;;;;;;;;;230.70;2252.80;;;;;;4958380;28;19957;-79
2023/12/27 00:32:12;;;;;;;;;;;230.50;2252.80;;;;;;4958592;28;19933;-79
2023/12/27 00:34:38;;;;;;;;;;;230.50;2252.80;;;;;;4958746;28;20378;-80
2023/12/27 00:37:04;;;;;;;;;;;205.70;2252.80;;;;;;4958591;28;19917;-80
2023/12/27 00:39:30;;;;;;;;;;;230.60;2252.80;;;;;;4958378;28;19946;-79
2023/12/27 00:41:55;;;;;;;;;;;230.60;2252.80;;;;;;4958497;28;19910;-79
2023/12/27 00:44:21;;;;;;;;;;;230.50;2252.80;;;;;;4958332;28;20275;-79
2023/12/27 00:46:46;;;;;;;;;;;205.60;2252.80;;;;;;4958421;28;19914;-79
2023/12/27 00:49:12;;;;;;;;;;;205.30;2252.80;;;;;;4958313;28;19910;-80
2023/12/27 00:51:38;;;;;;;;;;;205.10;2252.80;;;;;;4975372;28;19917;-79
2023/12/27 00:54:03;;;;;;;;;;;204.90;2252.80;;;;;;4942184;28;20004;-79
2023/12/27 00:56:29;;;;;;;;;;;204.80;2252.80;;;;;;4957945;28;19917;-79
2023/12/27 00:58:55;;;;;;;;;;;180.10;2252.80;;;;;;4975082;28;20312;-79
2023/12/27 01:01:20;;;;;;;;;;;180.10;2252.80;;;;;;4958185;28;19906;-79
2023/12/27 01:03:46;;;;;;;;;;;179.80;2252.80;;;;;;4975047;28;19906;-79
2023/12/27 01:06:12;;;;;;;;;;;179.90;2252.80;;;;;;4975361;28;19925;-79
2023/12/27 01:08:37;;;;;;;;;;;179.90;2252.80;;;;;;4974065;28;19992;-79
2023/12/27 01:11:03;;;;;;;;;;;179.90;2252.80;;;;;;4957332;28;19941;-79
2023/12/27 01:13:29;;;;;;;;;;;180.00;2252.80;;;;;;4974927;28;20424;-79
2023/12/27 01:15:55;;;;;;;;;;;179.90;2252.80;;;;;;4973931;28;19973;-80
2023/12/27 01:18:20;;;;;;;;;;;204.80;2252.80;;;;;;4958089;28;19953;-79
2023/12/27 01:20:46;;;;;;;;;;;205.10;2252.80;;;;;;4957962;28;20283;-79
2023/12/27 01:23:12;;;;;;;;;;;205.20;2252.80;;;;;;4957710;28;19945;-79
2023/12/27 01:25:38;;;;;;;;;;;205.30;2252.80;;;;;;4957623;28;19910;-79
2023/12/27 01:28:03;;;;;;;;;;;205.40;2252.80;;;;;;4975022;28;19933;-79
2023/12/27 01:30:30;;;;;;;;;;;205.50;2252.80;;;;;;4957785;28;19913;-79
2023/12/27 01:32:55;;;;;;;;;;;205.60;2252.80;;;;;;4957884;28;19910;-79
2023/12/27 01:35:21;;;;;;;;;;;205.60;2252.80;;;;;;4974106;28;19960;-79
2023/12/27 01:37:47;;;;;;;;;;;205.60;2252.80;;;;;;4957407;28;20356;-79
2023/12/27 01:40:12;;;;;;;;;;;205.70;2252.80;;;;;;4957493;28;19913;-79
2023/12/27 01:42:39;;;;;;;;;;;205.70;2252.80;;;;;;4957701;28;19906;-79
2023/12/27 01:45:05;;;;;;;;;;;205.60;2252.80;;;;;;4957748;28;20287;-79
2023/12/27 01:47:32;;;;;;;;;;;205.50;2252.80;;;;;;4956552;28;19914;-79
2023/12/27 01:49:58;;;;;;;;;;;205.60;2252.80;;;;;;4957560;28;19913;-79
2023/12/27 01:52:23;;;;;;;;;;;205.50;2252.80;;;;;;4973717;28;19914;-79
2023/12/27 01:54:49;;;;;;;;;;;205.30;2252.80;;;;;;4957766;28;19917;-79
2023/12/27 01:57:15;;;;;;;;;;;205.30;2252.80;;;;;;4957566;28;19944;-79
2023/12/27 01:59:40;;;;;;;;;;;205.30;2252.80;;;;;;4974714;28;19961;-79
2023/12/27 02:02:07;;;;;;;;;;;205.30;2252.80;;;;;;4974948;28;19906;-79
2023/12/27 02:04:32;;;;;;;;;;;205.20;2252.80;;;;;;4961639;28;19945;-79
2023/12/27 02:06:59;;;;;;;;;;;205.00;2252.80;;;;;;4961079;28;19972;-79
2023/12/27 02:09:24;;;;;;;;;;;204.80;2252.80;;;;;;4978503;28;19906;-79
2023/12/27 02:11:50;;;;;;;;;;;205.00;2252.80;;;;;;4978475;28;19961;-79
2023/12/27 02:14:16;;;;;;;;;;;205.00;2252.80;;;;;;4978385;28;19917;-79
2023/12/27 02:16:42;;;;;;;;;;;205.30;2252.80;;;;;;4960761;28;20312;-79
2023/12/27 02:19:11;;;;;;;;;;;205.40;2252.80;;;;;;4978195;28;19953;-79
2023/12/27 02:21:37;;;;;;;;;;;205.20;2252.80;;;;;;4961004;28;19926;-79
2023/12/27 02:24:03;;;;;;;;;;;205.10;2252.80;;;;;;4960767;28;19922;-78
2023/12/27 02:26:29;;;;;;;;;;;204.90;2252.80;;;;;;4960900;28;19914;-78
2023/12/27 02:28:54;;;;;;;;;;;204.90;2252.80;;;;;;4976926;28;19913;-79
2023/12/27 02:31:20;;;;;;;;;;;205.00;2252.80;;;;;;4960746;28;20016;-79
2023/12/27 02:33:46;;;;;;;;;;;204.80;2252.80;;;;;;4960734;28;19912;-79
2023/12/27 02:36:11;;;;;;;;;;;180.10;2252.80;;;;;;4978068;28;19906;-78
2023/12/27 02:38:37;;;;;;;;;;;180.10;2252.80;;;;;;4960435;28;20348;-79
2023/12/27 02:41:03;;;;;;;;;;;180.10;2252.80;;;;;;4960649;28;19906;-79
2023/12/27 02:43:28;;;;;;;;;;;204.80;2252.80;;;;;;4976556;28;20390;-79
2023/12/27 02:45:54;;;;;;;;;;;205.10;2252.80;;;;;;4977568;28;19973;-78
2023/12/27 02:48:20;;;;;;;;;;;205.00;2252.80;;;;;;4960342;28;20284;-79
2023/12/27 02:50:45;;;;;;;;;;;204.90;2252.80;;;;;;4960331;28;19998;-78
2023/12/27 02:53:11;;;;;;;;;;;180.10;2252.80;;;;;;4977601;28;19913;-78
2023/12/27 02:55:37;;;;;;;;;;;204.80;2252.80;;;;;;4958771;28;19921;-78
2023/12/27 02:58:03;;;;;;;;;;;180.10;2252.80;;;;;;4960330;28;19912;-79
2023/12/27 03:00:34;;;;;;;;;;;180.10;2252.80;;;;;;4977762;28;19910;-78
2023/12/27 03:03:00;;;;;;;;;;;205.00;2252.80;;;;;;4959966;28;19929;-79
2023/12/27 03:05:26;;;;;;;;;;;180.00;2252.80;;;;;;4976276;28;19985;-79
2023/12/27 03:07:52;;;;;;;;;;;180.00;2252.80;;;;;;4977597;28;19972;-79
2023/12/27 03:10:17;;;;;;;;;;;180.00;2252.80;;;;;;4977267;28;20037;-78
2023/12/27 03:12:43;;;;;;;;;;;180.00;2252.80;;;;;;4977665;28;19913;-79
2023/12/27 03:15:09;;;;;;;;;;;179.90;2252.80;;;;;;4978188;28;19914;-78
2023/12/27 03:17:34;;;;;;;;;;;179.90;2252.80;;;;;;4962202;28;19948;-79
2023/12/27 03:20:00;;;;;;;;;;;179.90;2252.80;;;;;;4979771;28;20423;-79
2023/12/27 03:22:25;;;;;;;;;;;179.90;2252.80;;;;;;4976485;28;19960;-79
2023/12/27 03:24:51;;;;;;;;;;;179.90;2252.80;;;;;;4977167;28;19914;-79
2023/12/27 03:27:17;;;;;;;;;;;180.00;2252.80;;;;;;4976866;28;19961;-79
2023/12/27 03:29:42;;;;;;;;;;;180.10;2252.80;;;;;;4975689;28;19961;-79
2023/12/27 03:32:08;;;;;;;;;;;180.10;2252.80;;;;;;4959521;28;19907;-79
2023/12/27 03:34:33;;;;;;;;;;;204.90;2252.80;;;;;;4959664;28;19910;-79
2023/12/27 03:36:59;;;;;;;;;;;205.00;2252.80;;;;;;4959742;28;19913;-79
2023/12/27 03:39:25;;;;;;;;;;;205.10;2252.80;;;;;;4958804;28;19906;-79
2023/12/27 03:41:50;;;;;;;;;;;205.20;2252.80;;;;;;4976717;28;19948;-79
2023/12/27 03:44:16;;;;;;;;;;;205.10;2252.80;;;;;;4959426;28;19981;-79
2023/12/27 03:46:41;;;;;;;;;;;205.00;2252.80;;;;;;4959058;28;19941;-79
2023/12/27 03:49:07;;;;;;;;;;;204.90;2252.80;;;;;;4959367;28;19906;-80
2023/12/27 03:51:33;;;;;;;;;;;205.00;2252.80;;;;;;4959257;28;19961;-79
2023/12/27 03:53:58;;;;;;;;;;;204.90;2252.80;;;;;;4959344;28;19910;-79
2023/12/27 03:56:24;;;;;;;;;;;205.10;2252.80;;;;;;4959275;28;20258;-79
2023/12/27 03:58:49;;;;;;;;;;;205.10;2252.80;;;;;;4959322;28;20017;-79
2023/12/27 04:01:19;;;;;;;;;;;205.20;2252.80;;;;;;4958971;28;20384;-79
2023/12/27 04:03:45;;;;;;;;;;;205.10;2252.80;;;;;;4958981;28;19961;-79
2023/12/27 04:06:16;;;;;;;;;;;205.10;2252.80;;;;;;4959062;28;19914;-79
2023/12/27 04:08:41;;;;;;;;;;;205.10;2252.80;;;;;;4958814;28;19996;-79
2023/12/27 04:11:07;;;;;;;;;;;205.10;2252.80;;;;;;4976287;28;19982;-79
2023/12/27 04:13:33;;;;;;;;;;;205.00;2252.80;;;;;;4976280;28;20253;-79
2023/12/27 04:15:58;;;;;;;;;;;204.90;2252.80;;;;;;4958669;28;19933;-79
2023/12/27 04:18:24;;;;;;;;;;;204.80;2252.80;;;;;;4958770;28;19961;-79
2023/12/27 04:20:49;;;;;;;;;;;180.10;2252.80;;;;;;4974998;28;19910;-79
2023/12/27 04:23:15;;;;;;;;;;;204.80;2252.80;;;;;;4958696;28;19918;-79
2023/12/27 04:25:40;;;;;;;;;;;204.90;2252.80;;;;;;4957049;28;20001;-79
2023/12/27 04:28:06;;;;;;;;;;;204.80;2252.80;;;;;;4958704;28;20331;-79
2023/12/27 04:30:32;;;;;;;;;;;204.80;2252.80;;;;;;4974662;28;19906;-77
2023/12/27 04:32:57;;;;;;;;;;;180.00;2252.80;;;;;;4957954;28;19993;-78
2023/12/27 04:35:23;;;;;;;;;;;180.10;2252.80;;;;;;4975718;28;19914;-77
2023/12/27 04:37:49;;;;;;;;;;;179.90;2252.80;;;;;;4958424;28;19906;-78
2023/12/27 04:40:14;;;;;;;;;;;180.10;2252.80;;;;;;4974651;28;20316;-78
2023/12/27 04:42:40;;;;;;;;;;;180.00;2252.80;;;;;;4974476;28;19949;-79
2023/12/27 04:45:07;;;;;;;;;;;180.00;2252.80;;;;;;4958281;28;19906;-78
2023/12/27 04:47:33;;;;;;;;;;;179.90;2252.80;;;;;;4958220;28;19914;-78
2023/12/27 04:49:58;;;;;;;;;;;179.90;2252.80;;;;;;4974558;28;20360;-79
2023/12/27 04:52:24;;;;;;;;;;;180.00;2252.80;;;;;;4957423;28;19949;-79
2023/12/27 04:54:49;;;;;;;;;;;180.10;2252.80;;;;;;4958285;28;19953;-78
2023/12/27 04:57:15;;;;;;;;;;;180.00;2252.80;;;;;;4958104;28;19912;-79
2023/12/27 04:59:41;;;;;;;;;;;180.10;2252.80;;;;;;4975539;28;19914;-79
2023/12/27 05:02:06;;;;;;;;;;;204.80;2252.80;;;;;;4957855;28;19946;-79
2023/12/27 05:04:32;;;;;;;;;;;204.90;2252.80;;;;;;4975260;28;19906;-78
2023/12/27 05:06:57;;;;;;;;;;;204.80;2252.80;;;;;;4957992;28;19914;-79
2023/12/27 05:09:23;;;;;;;;;;;204.90;2252.80;;;;;;4973101;28;19906;-79
2023/12/27 05:11:49;;;;;;;;;;;204.90;2252.80;;;;;;4956836;28;19906;-79
2023/12/27 05:14:15;;;;;;;;;;;204.90;2252.80;;;;;;4964016;28;20549;-79
2023/12/27 05:16:41;;;;;;;;;;;204.80;2252.80;;;;;;4956115;28;19933;-79
2023/12/27 05:19:07;;;;;;;;;;;180.10;2252.80;;;;;;4957025;28;19914;-79
2023/12/27 05:21:32;;;;;;;;;;;180.10;2252.80;;;;;;4973902;28;20008;-78
2023/12/27 05:23:58;;;;;;;;;;;204.90;2252.80;;;;;;4974630;28;20257;-79
2023/12/27 05:26:24;;;;;;;;;;;205.00;2252.80;;;;;;4974278;28;19970;-79
2023/12/27 05:28:49;;;;;;;;;;;204.90;2252.80;;;;;;4956694;28;20295;-78
2023/12/27 05:31:15;;;;;;;;;;;204.90;2252.80;;;;;;4957361;28;19906;-78
2023/12/27 05:33:40;;;;;;;;;;;204.90;2252.80;;;;;;4956982;28;19913;-79
2023/12/27 05:36:06;;;;;;;;;;;205.00;2252.80;;;;;;4956874;28;20284;-78
2023/12/27 05:38:32;;;;;;;;;;;205.10;2252.80;;;;;;4972478;28;20005;-79
2023/12/27 05:40:58;;;;;;;;;;;205.10;2252.80;;;;;;4977864;28;19910;-77
2023/12/27 05:43:23;;;;;;;;;;;205.00;2252.80;;;;;;4978880;28;19910;-78
2023/12/27 05:45:49;;;;;;;;;;;205.00;2252.80;;;;;;4966392;28;19906;-78
2023/12/27 05:48:15;;;;;;;;;;;205.10;2252.80;;;;;;4976973;28;19914;-77
2023/12/27 05:50:40;;;;;;;;;;;205.20;2252.80;;;;;;4977905;28;19917;-76
2023/12/27 05:53:06;;;;;;;;;;;205.20;2252.80;;;;;;4960288;28;19938;-78
2023/12/27 05:55:31;;;;;;;;;;;205.20;2252.80;;;;;;4959995;28;19910;-77
2023/12/27 05:57:57;;;;;;;;;;;205.10;2252.80;;;;;;4977205;28;20283;-77
2023/12/27 06:00:23;;;;;;;;;;;205.20;2252.80;;;;;;4960500;28;20287;-78
2023/12/27 06:02:49;;;;;;;;;;;205.20;2252.80;;;;;;4979562;28;20288;-78
2023/12/27 06:05:15;;;;;;;;;;;205.30;2252.80;;;;;;4960693;28;20283;-79
2023/12/27 06:07:40;;;;;;;;;;;205.20;2252.80;;;;;;4960464;28;19914;-79
2023/12/27 06:10:06;;;;;;;;;;;205.40;2252.80;;;;;;4977174;28;19941;-79
2023/12/27 06:12:32;;;;;;;;;;;205.40;2252.80;;;;;;4961212;28;19910;-80
2023/12/27 06:14:59;;;;;;;;;;;205.30;2252.80;;;;;;4979986;28;19925;-77
2023/12/27 06:17:24;;;;;;;;;;;205.30;2252.80;;;;;;4959447;28;19914;-77
2023/12/27 06:19:50;;;;;;;;;;;205.40;2252.80;;;;;;4959663;28;19917;-80
2023/12/27 06:22:16;;;;;;;;;;;205.30;2252.80;;;;;;4965355;28;20021;-78
2023/12/27 06:24:41;;;;;;;;;;;205.30;2252.80;;;;;;4977709;28;19952;-80
2023/12/27 06:27:08;;;;;;;;;;;205.30;2252.80;;;;;;4960130;28;19914;-80
2023/12/27 06:29:33;;;;;;;;;;;205.30;2252.80;;;;;;4960535;28;19906;-80
2023/12/27 06:31:59;;;;;;;;;;;205.50;2252.80;;;;;;4977907;28;19969;-77
2023/12/27 06:34:25;;;;;;;;;;;205.40;2252.80;;;;;;4962106;28;19945;-76
2023/12/27 06:36:51;;;;;;;;;;;205.40;2252.80;;;;;;4945022;28;20005;-77
2023/12/27 06:39:17;;;;;;;;;;;205.40;2252.80;;;;;;4977485;28;19914;-77
2023/12/27 06:41:42;;;;;;;;;;;205.40;2252.80;;;;;;4967367;28;19906;-78
2023/12/27 06:44:08;;;;;;;;;;;205.50;2252.80;;;;;;4976869;28;19953;-79
2023/12/27 06:46:33;;;;;;;;;;;205.50;2252.80;;;;;;4977634;28;19918;-77
2023/12/27 06:48:59;;;;;;;;;;;205.40;2252.80;;;;;;4959139;28;19914;-78
2023/12/27 06:51:24;;;;;;;;;;;205.40;2252.80;;;;;;4976951;28;19910;-80
2023/12/27 06:53:50;;;;;;;;;;;205.40;2252.80;;;;;;4959447;28;19993;-77
2023/12/27 06:56:16;;;;;;;;;;;205.40;2252.80;;;;;;4977159;28;19913;-76
2023/12/27 06:58:41;;;;;;;;;;;205.60;2252.80;;;;;;4959480;28;19906;-79
2023/12/27 07:01:09;;;;;;;;;;;205.70;2252.80;;;;;;4977216;28;19906;-78
2023/12/27 07:03:35;;;;;;;;;;;205.70;2252.80;;;;;;4976520;28;19906;-76
2023/12/27 07:06:00;;;;;;;;;;;205.70;2252.80;;;;;;4959036;28;19920;-77
2023/12/27 07:08:26;;;;;;;;;;;205.70;2252.80;;;;;;4959649;28;20008;-78
2023/12/27 07:10:52;;;;;;;;;;;205.70;2252.80;;;;;;4976954;28;19907;-79
2023/12/27 07:13:17;;;;;;;;;;;205.70;2252.80;;;;;;4976487;28;19910;-77
2023/12/27 07:15:43;;;;;;;;;;;205.70;2252.80;;;;;;4958834;28;19906;-77
2023/12/27 07:18:08;;;;;;;;;;;205.70;2252.80;;;;;;4958985;28;20331;-79
2023/12/27 07:20:34;;;;;;;;;;;205.70;2252.80;;;;;;4976515;28;19960;-77
2023/12/27 07:23:00;;;;;;;;;;;205.70;2252.80;;;;;;4975915;28;19925;-78
2023/12/27 07:25:25;;;;;;;;;;;205.70;2252.80;;;;;;4958951;28;19910;-77
2023/12/27 07:27:51;;;;;;;;;;;230.40;2252.80;;;;;;4972160;28;19914;-78
2023/12/27 07:30:17;;;;;;;;;;;230.40;2252.80;;;;;;4976718;28;19929;-77
2023/12/27 07:32:42;;;;;;;;;;;230.40;2252.80;;;;;;4958656;28;19913;-78
2023/12/27 07:35:08;;;;;;;;;;;230.40;2252.80;;;;;;4958747;28;19906;-78
2023/12/27 07:37:34;;;;;;;;;;;230.60;2252.80;;;;;;4976689;28;20041;-78
2023/12/27 07:39:59;;;;;;;;;;;230.60;2252.80;;;;;;4976082;28;19910;-79
2023/12/27 07:42:25;;;;;;;;;;;230.70;2252.80;;;;;;4958987;28;19916;-81
2023/12/27 07:44:51;;;;;;;;;;;230.70;2252.80;;;;;;4958466;28;19906;-78
2023/12/27 07:47:17;;;;;;;;;;;230.70;2252.80;;;;;;4975929;28;19969;-77
2023/12/27 07:49:42;;;;;;;;;;;230.80;2252.80;;;;;;4958526;28;20287;-78
2023/12/27 07:52:08;;;;;;;;;;;230.90;2252.80;;;;;;4975717;28;20004;-77
2023/12/27 07:54:37;;;;;;;;;;;231.10;2252.80;;;;;;4958648;28;19910;-79
2023/12/27 07:57:03;;;;;;;;;;;231.20;2252.80;;;;;;4975733;28;19941;-77
2023/12/27 07:59:28;;;;;;;;;;;256.00;2252.80;;;;;;4975081;28;19960;-76
2023/12/27 08:01:54;;;;;;;;;;;256.00;2252.80;;;;;;4975352;28;19994;-77
2023/12/27 08:04:20;;;;;;;;;;;256.00;2252.80;;;;;;4975874;28;19906;-78
2023/12/27 08:06:46;;;;;;;;;;;256.10;2252.80;;;;;;4975465;28;19914;-80
2023/12/27 08:09:12;;;;;;;;;;;256.10;2252.80;;;;;;4975812;28;19929;-76
2023/12/27 08:11:38;;;;;;;;;;;256.10;2252.80;;;;;;4975481;28;19906;-77
2023/12/27 08:14:03;;;;;;;;;;;256.20;2252.80;;;;;;4963603;28;20404;-80
2023/12/27 08:16:29;;;;;;;;;;;256.30;2252.80;;;;;;4975532;28;19911;-80
2023/12/27 08:18:54;;;;;;;;;;;256.50;2252.80;;;;;;4975282;28;19913;-80
2023/12/27 08:21:21;;;;;;;;;;;256.50;2252.80;;;;;;4975368;28;19983;-78
2023/12/27 08:23:46;;;;;;;;;;;256.50;2252.80;;;;;;4953808;28;19960;-78
2023/12/27 08:26:12;;;;;;;;;;;256.50;2252.80;;;;;;4970872;28;20409;-79
2023/12/27 08:28:38;;;;;;;;;;;256.60;2252.80;;;;;;4966907;28;19906;-76
2023/12/27 08:31:04;;;;;;;;;;;256.60;2252.80;;;;;;4975628;28;20036;-77
2023/12/27 08:33:35;;;;;;;;;;;256.70;2252.80;;;;;;4975186;28;19906;-79
2023/12/27 08:36:01;;;;;;;;;;;256.90;2252.80;;;;;;4957631;28;19905;-77
2023/12/27 08:38:27;;;;;;;;;;;281.60;2278.40;;;;;;4975647;28;19913;-77
2023/12/27 08:40:53;;;;;;;;;;;281.60;2278.40;;;;;;4957472;28;19962;-78
2023/12/27 08:43:19;;;;;;;;;;;281.60;2278.40;;;;;;4957853;28;19907;-80
2023/12/27 08:45:45;;;;;;;;;;;281.60;2278.40;;;;;;4957952;28;19910;-78
2023/12/27 08:48:11;;;;;;;;;;;281.60;2278.40;;;;;;4957820;28;19914;-78
2023/12/27 08:50:38;;;;;;;;;;;281.60;2278.40;;;;;;4957293;28;20360;-80
2023/12/27 08:53:03;;;;;;;;;;;281.70;2278.40;;;;;;4955837;28;19910;-77
2023/12/27 08:55:29;;;;;;;;;;;281.80;2278.40;;;;;;4956679;28;20364;-77
2023/12/27 08:57:54;;;;;;;;;;;281.80;2278.40;;;;;;4957168;28;19914;-79
2023/12/27 09:00:22;;;;;;;;;;;281.90;2278.40;;;;;;4975261;28;20008;-79
2023/12/27 09:02:48;;;;;;;;;;;281.90;2278.40;;;;;;4957212;28;20436;-78
2023/12/27 09:05:13;;;;;;;;;;;282.00;2278.40;;;;;;4975038;28;19913;-79
2023/12/27 09:07:39;;;;;;;;;;;281.90;2278.40;;;;;;4957325;28;19940;-79
2023/12/27 09:10:05;;;;;;;;;;;281.90;2278.40;;;;;;4957525;28;19906;-79
2023/12/27 09:12:30;;;;;;;;;;;282.00;2278.40;;;;;;4959842;28;19937;-79
2023/12/27 09:14:56;;;;;;;;;;;282.00;2278.40;;;;;;4957304;28;19915;-79
2023/12/27 09:17:23;;;;;;;;;;;281.90;2278.40;;;;;;4973842;28;19953;-77
2023/12/27 09:19:48;;;;;;;;;;;282.00;2278.40;;;;;;4956828;28;20099;-78
2023/12/27 09:22:14;;;;;;;;;;;282.10;2278.40;;;;;;4957153;28;20379;-78
2023/12/27 09:24:41;;;;;;;;;;;282.20;2278.40;;;;;;4974382;28;19937;-79
2023/12/27 09:27:07;;;;;;;;;;;282.20;2278.40;;;;;;4974727;28;19921;-77
2023/12/27 09:29:32;;;;;;;;;;;282.30;2278.40;;;;;;4956984;28;19906;-77
2023/12/27 09:31:58;;;;;;;;;;;282.30;2278.40;;;;;;4964686;28;19906;-77
2023/12/27 09:34:23;;;;;;;;;;;282.30;2278.40;;;;;;4974613;28;19913;-81
2023/12/27 09:36:49;;;;;;;;;;;282.40;2278.40;;;;;;4974656;28;20323;-78
2023/12/27 09:39:15;;;;;;;;;;;282.40;2278.40;;;;;;4957380;28;19992;-79
2023/12/27 09:41:41;;;;;;;;;;;282.40;2278.40;;;;;;4956816;28;20280;-78
2023/12/27 09:44:12;;;;;;;;;;;281.80;2278.40;;;;;;4974452;28;20303;-78
2023/12/27 09:46:38;;;;;;;;;;;282.50;2278.40;;;;;;4955091;28;19910;-79
2023/12/27 09:49:04;;;;;;;;;;;282.50;2278.40;;;;;;4960070;28;19917;-76
2023/12/27 09:51:30;;;;;;;;;;;307.30;2304.00;;;;;;4953109;28;19987;-75
2023/12/27 09:53:56;;;;;;;;;;;307.40;2304.00;;;;;;4970847;28;19915;-75
2023/12/27 09:56:22;;;;;;;;;;;307.60;2304.00;;;;;;4972374;28;19913;-76
2023/12/27 09:58:49;;;;;;;;;;;307.70;2304.00;;;;;;4973638;28;19913;-76
2023/12/27 10:01:16;;;;;;;;;;;307.80;2304.00;;;;;;4972373;28;20320;-75
2023/12/27 10:03:43;;;;;;;;;;;307.80;2304.00;;;;;;4973133;28;19906;-76
2023/12/27 10:06:19;;;;;;;;;;;307.80;2304.00;;;;;;4973807;28;19914;-75
2023/12/27 10:08:45;;;;;;;;;;;307.80;2304.00;;;;;;4967641;28;19914;-76
2023/12/27 10:11:11;;;;;;;;;;;307.80;2304.00;;;;;;4973534;28;19912;-75
2023/12/27 10:13:41;;;;;;;;;;;307.80;2304.00;;;;;;4970045;28;19997;-78
2023/12/27 10:16:06;;;;;;;;;;;307.90;2304.00;;;;;;4972764;28;19949;-76
2023/12/27 10:18:32;;;;;;;;;;;308.00;2304.00;;;;;;4973645;28;19953;-73
2023/12/27 10:20:58;;;;;;;;;;;307.90;2304.00;;;;;;4973043;28;19905;-76
2023/12/27 10:23:24;;;;;;;;;;;308.10;2304.00;;;;;;4969886;28;19922;-76
2023/12/27 10:25:51;;;;;;;;;;;308.10;2304.00;;;;;;4977192;28;19913;-76
2023/12/27 10:28:22;;;;;;;;;;;308.10;2304.00;;;;;;4977103;28;19956;-74
2023/12/27 10:30:47;;;;;;;;;;;308.10;2304.00;;;;;;4977458;28;19906;-74
2023/12/27 10:33:13;;;;;;;;;;;308.10;2304.00;;;;;;4973216;28;19977;-76
2023/12/27 10:35:39;;;;;;;;;;;332.80;2329.60;;;;;;4976830;28;19956;-77
2023/12/27 10:38:05;;;;;;;;;;;308.10;2304.00;;;;;;4977634;28;19913;-77
2023/12/27 10:40:33;;;;;;;;;;;308.10;2304.00;;;;;;4976556;28;19910;-78
2023/12/27 10:42:58;;;;;;;;;;;332.80;2329.60;;;;;;4977080;28;19976;-76
2023/12/27 10:45:24;;;;;;;;;;;332.80;2329.60;;;;;;4977048;28;19918;-76
2023/12/27 10:47:53;;;;;;;;;;;332.90;2329.60;;;;;;4976857;28;20343;-75
2023/12/27 10:50:20;;;;;;;;;;;332.90;2329.60;;;;;;4977092;28;19913;-75
2023/12/27 10:52:49;;;;;;;;;;;333.00;2329.60;;;;;;4957513;28;19918;-74
2023/12/27 10:55:18;;;;;;;;;;;333.00;2329.60;;;;;;4972731;28;19918;-74
2023/12/27 10:57:45;;;;;;;;;;;333.10;2329.60;;;;;;4976734;28;19906;-75
2023/12/27 11:00:12;;;;;;;;;;;333.00;2329.60;;;;;;4975573;28;19906;-74
2023/12/27 11:02:38;;;;;;;;;;;333.00;2329.60;;;;;;4965619;28;20104;-75
2023/12/27 11:05:06;;;;;;;;;;;333.00;2329.60;;;;;;4959203;28;20004;-74
2023/12/27 11:07:35;;;;;;;;;;;333.10;2329.60;;;;;;4976633;28;19921;-75
2023/12/27 11:10:05;;;;;;;;;;;333.10;2329.60;;;;;;4958815;28;19906;-76
2023/12/27 11:12:32;;;;;;;;;;;333.40;2329.60;;;;;;4972816;28;19905;-76
2023/12/27 11:15:02;;;;;;;;;;;333.40;2329.60;;;;;;4976473;28;19906;-75
2023/12/27 11:17:28;;;;;;;;;;;333.40;2329.60;;;;;;4976005;28;19906;-76
2023/12/27 11:19:54;;;;;;;;;;;333.40;2329.60;;;;;;4959241;28;19934;-77
2023/12/27 11:22:20;;;;;;;;;;;333.40;2329.60;;;;;;4975832;28;19965;-78
2023/12/27 11:24:46;;;;;;;;;;;333.50;2329.60;;;;;;4959410;28;19921;-80
2023/12/27 11:27:16;;;;;;;;;;;333.40;2329.60;;;;;;4959263;28;19918;-77
2023/12/27 11:29:42;;;;;;;;;;;333.40;2329.60;;;;;;4976084;28;19976;-78
2023/12/27 11:32:07;;;;;;;;;;;333.50;2329.60;;;;;;4976295;28;21800;-76
2023/12/27 11:34:34;;;;;;;;;;;333.50;2329.60;;;;;;4975415;28;20352;-78
2023/12/27 11:36:59;;;;;;;;;;;333.50;2329.60;;;;;;4958718;28;19910;-78
2023/12/27 11:39:26;;;;;;;;;;;333.50;2329.60;;;;;;4958775;28;20378;-79
2023/12/27 11:41:52;;;;;;;;;;;333.50;2329.60;;;;;;4959015;28;19906;-77
2023/12/27 11:44:18;;;;;;;;;;;333.50;2329.60;;;;;;4958766;28;19953;-76
2023/12/27 11:46:44;;;;;;;;;;;333.50;2329.60;;;;;;4976271;28;19914;-77
2023/12/27 11:49:17;;;;;;;;;;;333.60;2329.60;;;;;;4958410;28;19914;-77
2023/12/27 11:51:43;;;;;;;;;;;333.40;2304.00;;;;;;4958518;28;19910;-77
2023/12/27 11:54:19;;;;;;;;;;;333.50;2329.60;;;;;;4975613;28;19961;-79
2023/12/27 11:56:45;;;;;;;;;;;333.50;2329.60;;;;;;4958708;28;19917;-78
2023/12/27 11:59:11;;;;;;;;;;;333.50;2329.60;;;;;;4958438;28;20267;-78
2023/12/27 12:01:37;;;;;;;;;;;333.60;2329.60;;;;;;4958842;28;19977;-78
2023/12/27 12:04:15;;;;;;;;;;;333.60;2329.60;;;;;;4975696;28;19906;-79
2023/12/27 12:06:56;;;;;;;;;;;333.60;2329.60;;;;;;4975361;28;19914;-78
2023/12/27 12:09:25;;;;;;;;;;;333.60;2329.60;;;;;;4958378;28;20368;-79
2023/12/27 12:11:51;;;;;;;;;;;333.60;2329.60;;;;;;4975118;28;19960;-77
2023/12/27 12:14:16;;;;;;;;;;;333.60;2329.60;;;;;;4958547;28;20270;-77
2023/12/27 12:16:42;;;;;;;;;;;333.60;2329.60;;;;;;4975326;28;19979;-78
2023/12/27 12:19:11;;;;;;;;;;;333.60;2329.60;;;;;;4958004;28;19913;-78
2023/12/27 12:21:37;;;;;;;;;;;333.60;2329.60;;;;;;4957777;28;20302;-78
2023/12/27 12:24:09;;;;;;;;;;;333.60;2329.60;;;;;;4971168;28;20380;-77
2023/12/27 12:26:35;;;;;;;;;;;333.60;2329.60;;;;;;4957740;28;20299;-78
2023/12/27 12:29:02;;;;;;;;;;;333.60;2278.40;;;;;;4975133;28;19906;-78
2023/12/27 12:31:30;;;;;;;;;;;333.60;2252.80;;;;;;4952625;28;19957;-77
2023/12/27 12:33:56;;;;;;;;;;;333.60;2227.20;;;;;;4957282;28;19906;-77
2023/12/27 12:36:22;;;;;;;;;;;333.60;2227.20;;;;;;4970908;28;19913;-78
2023/12/27 12:38:47;;;;;;;;;;;333.50;2252.80;;;;;;4958310;28;19913;-78
2023/12/27 12:41:13;;;;;;;;;;;333.60;2278.40;;;;;;4957272;28;19928;-78
2023/12/27 12:43:38;;;;;;;;;;;333.50;2278.40;;;;;;4975201;28;20381;-78
2023/12/27 12:46:04;;;;;;;;;;;333.50;2304.00;;;;;;4956919;28;19913;-77
2023/12/27 12:48:30;;;;;;;;;;;333.60;2278.40;;;;;;4957250;28;20422;-78
2023/12/27 12:51:22;;;;;;;;;;;333.60;2278.40;;;;;;4956033;28;19937;-78
2023/12/27 12:53:48;;;;;;;;;;;333.60;2278.40;;;;;;4970722;28;19914;-77
2023/12/27 12:56:14;;;;;;;;;;;333.60;2227.20;;;;;;4972843;28;19905;-78
2023/12/27 12:58:41;;;;;;;;;;;333.50;2227.20;;;;;;4957428;28;20387;-77
2023/12/27 13:01:09;;;;;;;;;;;333.60;2176.00;;;;;;4957430;28;19966;-77
2023/12/27 13:03:37;;;;;;;;;;;333.60;2176.00;;;;;;4962914;28;19945;-77
2023/12/27 13:06:06;;;;;;;;;;;333.60;2150.40;;;;;;4955857;28;19916;-77
2023/12/27 13:08:32;;;;;;;;;;;333.50;2176.00;;;;;;4974981;28;20026;-76
2023/12/27 13:10:58;;;;;;;;;;;333.60;2150.40;;;;;;4956337;28;19913;-77
2023/12/27 13:13:24;;;;;;;;;;;333.60;2150.40;;;;;;4974203;28;19906;-77
2023/12/27 13:15:49;;;;;;;;;;;333.60;2176.00;;;;;;4974240;28;19906;-77
2023/12/27 13:18:15;;;;;;;;;;;333.60;2227.20;;;;;;4977047;28;19917;-80
2023/12/27 13:20:40;;;;;;;;;;;333.60;2201.60;;;;;;4957344;28;19928;-78
2023/12/27 13:23:06;;;;;;;;;;;333.60;2176.00;;;;;;4956424;28;19972;-79
2023/12/27 13:25:31;;;;;;;;;;;333.70;2227.20;;;;;;4956638;28;19914;-78
2023/12/27 13:27:57;;;;;;;;;;;333.60;2150.40;;;;;;4956375;28;19944;-79
2023/12/27 13:30:23;;;;;;;;;;;333.70;2176.00;;;;;;4957620;28;20381;-78
2023/12/27 13:32:48;;;;;;;;;;;333.70;2150.40;;;;;;4954346;28;19937;-78
2023/12/27 13:35:14;;;;;;;;;;;333.70;2150.40;;;;;;4956829;28;19934;-80